Neder Vindinge, Denmark
Current Conditions -  °F | °C
As of 11:50 PM on Saturday 20 Dec 2014 (Local Time) from EKRK Reporting Station
Clear Clear  
Wind Chill: 29°   Ceiling: Unl
Heat Index: 37°   Visibility: 6mi
Dew Point: 36°   Wind: 15mph
Humidity: 93%   Direction: 300°WNW
Pressure: 29.77"   Gusts: NA
Location:  55.03°N, 11.88°E
Report Text: EKRK 202250Z AUTO 30013KT 9999NDV NCD 03/02 Q1008
Loading
Personal Weather Stations






























Interactive Weather Map New forecast layout! Learn more

10-Day Weather Forecast

Advertisements
Track Severe Weather on mobile